createdAt,value
2022-11-17T00:01:13.855Z,99702.65
2022-11-17T00:03:42.496Z,99697.10
2022-11-17T00:06:11.046Z,99692.30
2022-11-17T00:08:39.809Z,99687.01
2022-11-17T00:11:08.839Z,99683.19
2022-11-17T00:13:55.485Z,99681.00
2022-11-17T00:16:24.125Z,99672.55
2022-11-17T00:19:10.996Z,99662.59
2022-11-17T00:21:39.754Z,99660.80
2022-11-17T00:24:08.469Z,99668.10
2022-11-17T00:27:00.247Z,99674.44
2022-11-17T00:29:32.728Z,99670.70
2022-11-17T00:32:19.570Z,99664.02
2022-11-17T00:34:48.140Z,99667.17
2022-11-17T00:37:17.302Z,99674.23
2022-11-17T00:39:45.922Z,99676.30
2022-11-17T00:42:14.604Z,99678.09
2022-11-17T00:44:43.415Z,99676.42
2022-11-17T00:47:12.076Z,99683.90
2022-11-17T00:49:40.769Z,99683.37
2022-11-17T00:52:10.106Z,99686.55
2022-11-17T00:54:38.629Z,99689.46
2022-11-17T00:57:07.245Z,99690.05
2022-11-17T00:59:35.773Z,99694.86
2022-11-17T01:02:04.279Z,99695.80
2022-11-17T01:04:32.852Z,99685.25
2022-11-17T01:07:01.481Z,99675.78
2022-11-17T01:09:30.172Z,99676.00
2022-11-17T01:12:00.674Z,99680.61
2022-11-17T01:14:33.192Z,99681.61
2022-11-17T01:17:01.646Z,99680.81
2022-11-17T01:19:30.268Z,99686.52
2022-11-17T01:21:58.944Z,99693.75
2022-11-17T01:24:27.738Z,99693.79
2022-11-17T01:26:56.430Z,99695.72
2022-11-17T01:29:24.933Z,99687.95
2022-11-17T01:31:53.658Z,99684.80
2022-11-17T01:34:22.289Z,99680.92
2022-11-17T01:40:14.250Z,99671.91
2022-11-17T01:42:42.787Z,99664.67
2022-11-17T01:45:23.398Z,99666.80
2022-11-17T01:47:58.688Z,99666.38
2022-11-17T01:50:36.641Z,99659.07
2022-11-17T01:53:11.688Z,99654.86
2022-11-17T01:55:52.437Z,99650.21
2022-11-17T01:58:33.703Z,99645.83
2022-11-17T02:01:02.649Z,99650.04
2022-11-17T02:03:34.847Z,99642.05
2022-11-17T02:06:10.746Z,99636.42
2022-11-17T02:08:43.404Z,99641.48
2022-11-17T02:11:17.536Z,99639.46
2022-11-17T02:13:46.679Z,99631.81
2022-11-17T02:16:17.362Z,99624.18
2022-11-17T02:18:48.827Z,99631.79
2022-11-17T02:21:50.155Z,99634.69
2022-11-17T02:24:58.994Z,99632.02
2022-11-17T02:27:50.567Z,99638.36
2022-11-17T02:30:22.889Z,99641.00
2022-11-17T02:33:36.827Z,99643.17
2022-11-17T02:36:24.276Z,99641.09
2022-11-17T02:39:23.789Z,99645.48
2022-11-17T02:42:09.017Z,99650.64
2022-11-17T02:44:58.802Z,99645.02
2022-11-17T02:47:34.592Z,99645.52
2022-11-17T02:50:10.557Z,99639.23
2022-11-17T02:52:39.239Z,99635.80
2022-11-17T02:55:10.994Z,99637.11
2022-11-17T02:57:41.549Z,99639.69
2022-11-17T03:00:18.439Z,99627.75
2022-11-17T03:02:54.348Z,99629.58
2022-11-17T03:05:48.325Z,99633.48
2022-11-17T03:08:44.213Z,99622.52
2022-11-17T03:11:14.113Z,99620.04
2022-11-17T03:14:30.429Z,99619.16
2022-11-17T03:17:14.227Z,99615.98
2022-11-17T03:19:55.920Z,99607.10
2022-11-17T03:22:49.257Z,99602.29
2022-11-17T03:25:23.371Z,99598.34
2022-11-17T03:27:59.304Z,99594.90
2022-11-17T03:30:33.292Z,99594.67
2022-11-17T03:33:15.716Z,99596.63
2022-11-17T03:36:21.553Z,99592.71
2022-11-17T03:39:04.074Z,99590.91
2022-11-17T03:41:37.625Z,99584.70
2022-11-17T03:44:07.228Z,99589.59
2022-11-17T03:46:39.463Z,99585.40
2022-11-17T03:49:40.187Z,99590.80
2022-11-17T03:52:11.788Z,99589.37
2022-11-17T03:54:41.147Z,99592.15
2022-11-17T03:57:47.981Z,99593.64
2022-11-17T04:00:20.042Z,99596.91
2022-11-17T04:02:55.910Z,99594.60
2022-11-17T04:05:24.774Z,99595.10
2022-11-17T04:07:53.427Z,99597.94
2022-11-17T04:10:26.100Z,99597.34
2022-11-17T04:13:13.576Z,99602.58
2022-11-17T04:15:57.116Z,99597.29
2022-11-17T04:18:27.387Z,99599.64
2022-11-17T04:21:00.586Z,99597.86
2022-11-17T04:23:29.416Z,99595.76
2022-11-17T04:26:16.237Z,99598.48
2022-11-17T04:28:49.329Z,99593.48
2022-11-17T04:31:30.268Z,99590.52
2022-11-17T04:34:01.984Z,99587.10
2022-11-17T04:36:45.552Z,99590.36
2022-11-17T04:39:39.143Z,99590.68
2022-11-17T04:42:10.598Z,99584.49
2022-11-17T04:44:39.477Z,99581.08
2022-11-17T04:47:08.210Z,99575.36
2022-11-17T04:49:36.981Z,99571.32
2022-11-17T04:52:06.351Z,99570.77
2022-11-17T04:54:35.665Z,99570.48
2022-11-17T04:57:04.674Z,99569.23
2022-11-17T04:59:33.685Z,99570.54
2022-11-17T05:02:05.916Z,99567.23
2022-11-17T05:04:54.159Z,99569.52
2022-11-17T05:07:24.541Z,99564.61
2022-11-17T05:09:53.382Z,99564.94
2022-11-17T05:12:40.338Z,99568.66
2022-11-17T05:15:09.508Z,99569.22
2022-11-17T05:17:38.348Z,99569.06
2022-11-17T05:20:07.828Z,99570.77
2022-11-17T05:23:35.427Z,99570.24
2022-11-17T05:26:04.735Z,99567.36
2022-11-17T05:28:40.457Z,99561.12
2022-11-17T05:31:36.096Z,99562.20
2022-11-17T05:34:13.241Z,99559.77
2022-11-17T05:36:42.839Z,99557.99
2022-11-17T05:39:11.650Z,99554.91
2022-11-17T05:41:40.441Z,99546.55
2022-11-17T05:44:09.152Z,99540.66
2022-11-17T05:50:24.899Z,99541.67
2022-11-17T05:52:55.091Z,99540.73
2022-11-17T05:55:24.711Z,99537.36
2022-11-17T05:57:55.490Z,99529.48
2022-11-17T06:00:25.098Z,99525.88
2022-11-17T06:03:05.338Z,99518.96
2022-11-17T06:05:34.702Z,99514.17
2022-11-17T06:08:03.717Z,99518.11
2022-11-17T06:10:34.645Z,99519.36
2022-11-17T06:13:03.470Z,99522.65
2022-11-17T06:15:32.572Z,99520.45
2022-11-17T06:18:18.102Z,99519.42
2022-11-17T06:20:52.375Z,99513.48
2022-11-17T06:23:26.897Z,99510.52
2022-11-17T06:25:57.743Z,99504.91
2022-11-17T06:28:28.281Z,99504.64
2022-11-17T06:30:57.975Z,99498.98
2022-11-17T06:33:31.526Z,99497.48
2022-11-17T06:36:02.984Z,99495.38
2022-11-17T06:38:33.960Z,99486.23
2022-11-17T06:41:10.561Z,99478.84
2022-11-17T06:43:41.312Z,99476.58
2022-11-17T06:46:10.664Z,99473.88
2022-11-17T06:48:39.471Z,99471.00
2022-11-17T06:51:08.566Z,99459.80
2022-11-17T06:53:37.590Z,99461.14
2022-11-17T06:56:11.745Z,99465.95
2022-11-17T06:58:41.930Z,99461.36
2022-11-17T07:01:15.198Z,99461.55
2022-11-17T07:03:44.140Z,99458.77
2022-11-17T07:06:14.094Z,99460.91
2022-11-17T07:08:43.160Z,99463.16
2022-11-17T07:11:16.824Z,99461.28
2022-11-17T07:13:45.948Z,99452.67
2022-11-17T07:30:18.210Z,99446.36
2022-11-17T07:32:48.447Z,99434.61
2022-11-17T07:35:19.897Z,99420.08
2022-11-17T07:37:47.380Z,99413.52
2022-11-17T07:40:15.768Z,99415.66
2022-11-17T07:42:49.656Z,99414.80
2022-11-17T07:45:19.166Z,99415.19
2022-11-17T07:47:59.004Z,99420.91
2022-11-17T07:50:29.093Z,99422.53
2022-11-17T08:04:06.107Z,99414.14
2022-11-17T08:06:33.648Z,99413.48
2022-11-17T08:09:01.449Z,99419.48
2022-11-17T08:11:28.870Z,99418.72
2022-11-17T08:13:56.964Z,99415.81
2022-11-17T08:16:30.173Z,99416.21
2022-11-17T08:18:58.451Z,99418.27
2022-11-17T08:21:25.967Z,99417.19
2022-11-17T08:23:54.854Z,99415.80
2022-11-17T08:26:26.004Z,99414.69
2022-11-17T08:28:58.440Z,99420.71
2022-11-17T08:31:26.651Z,99420.54
2022-11-17T08:33:54.378Z,99419.66
2022-11-17T08:36:22.307Z,99416.02
2022-11-17T08:50:23.677Z,99414.13
2022-11-17T08:53:00.288Z,99410.42
2022-11-17T08:55:29.695Z,99416.09
2022-11-17T08:57:59.149Z,99411.21
2022-11-17T09:11:24.513Z,99398.66
2022-11-17T09:13:54.027Z,99389.86
2022-11-17T09:16:24.763Z,99385.84
2022-11-17T09:18:58.629Z,99384.75
2022-11-17T09:21:29.198Z,99382.65
2022-11-17T09:23:59.160Z,99384.09
2022-11-17T09:26:28.297Z,99379.98
2022-11-17T09:31:50.316Z,99371.96
2022-11-17T09:34:19.562Z,99368.88
2022-11-17T09:36:51.875Z,99368.02
2022-11-17T09:39:57.027Z,99367.15
2022-11-17T09:42:26.279Z,99367.46
2022-11-17T09:45:18.738Z,99364.39
2022-11-17T10:03:32.566Z,99357.30
2022-11-17T10:06:27.477Z,99353.73
2022-11-17T10:12:58.057Z,99347.30
2022-11-17T10:16:27.106Z,99347.67
2022-11-17T10:23:06.602Z,99347.49
2022-11-17T10:29:10.067Z,99349.90
2022-11-17T10:35:45.078Z,99348.10
2022-11-17T10:38:56.542Z,99349.06
2022-11-17T10:42:26.148Z,99350.83
2022-11-17T10:53:09.981Z,99350.41
2022-11-17T10:56:46.989Z,99353.32
2022-11-17T10:59:30.755Z,99353.00
2022-11-17T11:02:34.794Z,99348.52
2022-11-17T11:05:20.984Z,99347.52
2022-11-17T11:08:25.164Z,99343.00
2022-11-17T11:11:45.928Z,99339.70
2022-11-17T11:14:41.428Z,99343.30
2022-11-17T11:17:15.708Z,99338.39
2022-11-17T11:19:51.936Z,99342.33
2022-11-17T11:22:41.806Z,99341.25
2022-11-17T11:25:51.467Z,99343.27
2022-11-17T11:28:44.421Z,99342.09
2022-11-17T11:31:54.047Z,99337.98
2022-11-17T11:34:47.921Z,99340.81
2022-11-17T11:37:16.096Z,99345.95
2022-11-17T11:40:01.628Z,99348.70
2022-11-17T11:42:56.224Z,99347.55
2022-11-17T11:45:44.371Z,99347.00
2022-11-17T11:48:27.655Z,99346.88
2022-11-17T11:51:25.194Z,99346.48
2022-11-17T11:54:02.757Z,99338.98
2022-11-17T11:56:42.249Z,99338.20
2022-11-17T11:59:22.064Z,99342.45
2022-11-17T12:02:17.945Z,99346.98
2022-11-17T12:05:03.410Z,99355.80
2022-11-17T12:08:05.993Z,99348.80
2022-11-17T12:11:31.571Z,99349.96
2022-11-17T12:14:01.316Z,99345.94
2022-11-17T12:16:36.508Z,99350.05
2022-11-17T12:19:57.180Z,99349.13
2022-11-17T12:22:33.308Z,99351.88
2022-11-17T12:25:18.688Z,99356.52
2022-11-17T12:27:52.790Z,99363.83
2022-11-17T12:30:38.497Z,99365.99
2022-11-17T12:33:08.147Z,99365.60
2022-11-17T12:35:38.510Z,99359.61
2022-11-17T12:38:16.158Z,99352.64
2022-11-17T12:40:49.815Z,99358.34
2022-11-17T12:43:27.580Z,99362.27
2022-11-17T12:45:57.949Z,99364.15
2022-11-17T12:48:35.337Z,99367.58
2022-11-17T12:51:06.797Z,99378.63
2022-11-17T12:53:42.786Z,99386.40
2022-11-17T12:56:31.619Z,99384.38
2022-11-17T13:02:20.459Z,99386.69
2022-11-17T13:05:15.961Z,99383.98
2022-11-17T13:07:44.856Z,99388.11
2022-11-17T13:10:43.122Z,99390.48
2022-11-17T13:13:24.946Z,99396.92
2022-11-17T13:16:00.796Z,99394.29
2022-11-17T13:18:39.127Z,99394.48
2022-11-17T13:21:26.338Z,99400.24
2022-11-17T13:23:55.796Z,99399.48
2022-11-17T13:26:31.654Z,99398.04
2022-11-17T13:29:13.746Z,99397.83
2022-11-17T13:31:42.561Z,99407.58
2022-11-17T13:34:14.234Z,99415.20
2022-11-17T13:36:54.332Z,99423.54
2022-11-17T13:39:27.323Z,99431.73
2022-11-17T13:42:01.696Z,99433.95
2022-11-17T13:44:32.908Z,99441.28
2022-11-17T13:47:27.429Z,99439.07
2022-11-17T13:49:56.138Z,99442.16
2022-11-17T13:52:41.962Z,99449.95
2022-11-17T13:55:21.784Z,99451.55
2022-11-17T13:58:26.698Z,99453.86
2022-11-17T14:00:58.843Z,99459.71
2022-11-17T14:03:40.581Z,99462.48
2022-11-17T14:06:13.352Z,99462.02
2022-11-17T14:08:44.233Z,99459.85
2022-11-17T14:11:13.167Z,99465.27
2022-11-17T14:13:54.126Z,99467.25
2022-11-17T14:16:37.576Z,99466.42
2022-11-17T14:19:32.366Z,99470.49
2022-11-17T14:22:27.697Z,99474.75
2022-11-17T14:25:00.023Z,99476.16
2022-11-17T14:27:37.668Z,99478.16
2022-11-17T14:30:07.450Z,99479.74
2022-11-17T14:32:36.965Z,99479.84
2022-11-17T14:35:06.399Z,99486.88
2022-11-17T14:37:35.323Z,99483.17
2022-11-17T14:40:06.130Z,99484.95
2022-11-17T14:42:36.430Z,99489.20
2022-11-17T14:45:05.851Z,99492.55
2022-11-17T14:47:35.282Z,99510.69
2022-11-17T14:50:04.822Z,99508.77
2022-11-17T14:52:36.659Z,99511.44
2022-11-17T14:55:06.629Z,99515.23
2022-11-17T14:57:36.055Z,99512.50
2022-11-17T15:00:08.657Z,99507.96
2022-11-17T15:02:38.638Z,99514.80
2022-11-17T15:05:08.075Z,99522.54
2022-11-17T15:07:37.754Z,99520.88
2022-11-17T15:10:10.296Z,99525.25
2022-11-17T15:12:38.941Z,99536.71
2022-11-17T15:15:08.042Z,99537.61
2022-11-17T15:17:37.430Z,99547.17
2022-11-17T15:20:07.357Z,99554.50
2022-11-17T15:36:26.128Z,99574.16
2022-11-17T15:38:54.850Z,99592.06
2022-11-17T15:41:23.670Z,99597.69
2022-11-17T15:43:54.893Z,99601.10
2022-11-17T15:46:23.682Z,99612.73
2022-11-17T15:48:55.535Z,99621.20
2022-11-17T15:51:27.291Z,99628.92
2022-11-17T15:54:00.991Z,99631.69
2022-11-17T15:56:37.492Z,99629.15
2022-11-17T15:59:06.713Z,99631.52
2022-11-17T16:01:38.682Z,99637.91
2022-11-17T16:04:10.338Z,99642.40
2022-11-17T16:06:44.352Z,99634.92
2022-11-17T16:09:14.075Z,99633.22
2022-11-17T16:11:42.857Z,99631.10
2022-11-17T16:14:11.880Z,99645.06
2022-11-17T16:16:41.957Z,99652.71
2022-11-17T16:19:10.897Z,99660.95
2022-11-17T16:21:39.785Z,99664.27
2022-11-17T16:24:11.936Z,99671.77
2022-11-17T16:29:46.904Z,99660.34
2022-11-17T16:32:18.039Z,99683.71
2022-11-17T16:34:50.119Z,99683.92
2022-11-17T16:37:19.955Z,99680.84
2022-11-17T16:39:51.793Z,99681.91
2022-11-17T16:42:20.631Z,99687.27
2022-11-17T16:44:49.495Z,99693.19
2022-11-17T16:47:18.381Z,99692.84
2022-11-17T16:49:51.642Z,99682.02
2022-11-17T16:52:20.995Z,99688.95
2022-11-17T16:54:50.042Z,99685.65
2022-11-17T16:57:18.788Z,99699.61
2022-11-17T16:59:47.752Z,99695.51
2022-11-17T17:02:18.133Z,99694.98
2022-11-17T17:05:42.183Z,99698.33
2022-11-17T17:08:13.251Z,99708.66
2022-11-17T17:11:44.215Z,99699.52
2022-11-17T17:15:07.100Z,99698.27
2022-11-17T17:38:43.607Z,99724.65
2022-11-17T17:41:17.668Z,99735.48
2022-11-17T17:43:54.480Z,99739.83
2022-11-17T17:46:23.315Z,99734.91
2022-11-17T17:48:52.205Z,99734.01
2022-11-17T17:51:26.148Z,99730.95
2022-11-17T17:53:58.320Z,99733.80
2022-11-17T17:56:27.509Z,99733.42
2022-11-17T17:58:57.602Z,99733.70
2022-11-17T18:01:35.563Z,99737.05
2022-11-17T18:04:10.083Z,99741.99
2022-11-17T18:06:48.568Z,99753.24
2022-11-17T18:09:22.017Z,99752.08
2022-11-17T18:11:55.422Z,99761.45
2022-11-17T18:14:25.090Z,99766.34
2022-11-17T18:16:54.526Z,99768.23
2022-11-17T18:19:25.890Z,99768.13
2022-11-17T18:21:59.373Z,99766.65
2022-11-17T18:24:28.543Z,99776.60
2022-11-17T18:26:57.434Z,99763.86
2022-11-17T18:29:26.084Z,99753.88
2022-11-17T18:31:54.844Z,99753.60
2022-11-17T18:34:25.952Z,99767.86
2022-11-17T18:36:55.926Z,99769.34
2022-11-17T18:39:25.072Z,99775.02
2022-11-17T18:41:57.453Z,99782.98
2022-11-17T18:44:32.057Z,99781.45
2022-11-17T18:47:03.067Z,99781.64
2022-11-17T18:49:34.651Z,99784.67
2022-11-17T18:52:03.805Z,99795.26
2022-11-17T18:54:32.955Z,99802.14
2022-11-17T18:57:05.319Z,99809.48
2022-11-17T18:59:36.098Z,99800.83
2022-11-17T19:02:10.572Z,99796.06
2022-11-17T19:04:39.713Z,99802.10
2022-11-17T19:07:12.767Z,99809.73
2022-11-17T19:09:41.666Z,99810.40
2022-11-17T19:12:11.518Z,99809.31
2022-11-17T19:14:40.305Z,99811.63
2022-11-17T19:17:09.115Z,99808.65
2022-11-17T19:19:37.823Z,99816.41
2022-11-17T19:22:06.948Z,99823.96
2022-11-17T19:24:35.666Z,99824.33
2022-11-17T19:27:04.365Z,99819.05
2022-11-17T19:29:33.942Z,99822.25
2022-11-17T19:32:02.767Z,99819.59
2022-11-17T19:34:40.724Z,99822.88
2022-11-17T19:37:16.568Z,99835.95
2022-11-17T19:39:45.375Z,99846.78
2022-11-17T19:42:14.118Z,99841.19
2022-11-17T19:44:42.800Z,99832.16
2022-11-17T19:47:11.619Z,99829.88
2022-11-17T19:49:42.720Z,99835.49
2022-11-17T19:52:11.632Z,99835.15
2022-11-17T19:54:42.729Z,99825.82
2022-11-17T19:57:13.979Z,99832.15
2022-11-17T19:59:47.495Z,99840.32
2022-11-17T20:02:16.805Z,99841.31
2022-11-17T20:04:45.470Z,99835.13
2022-11-17T20:07:14.189Z,99827.17
2022-11-17T20:09:43.085Z,99821.72
2022-11-17T20:12:11.912Z,99829.47
2022-11-17T20:14:40.621Z,99836.13
2022-11-17T20:17:09.514Z,99828.39
2022-11-17T20:19:39.361Z,99828.27
2022-11-17T20:22:08.097Z,99824.08
2022-11-17T20:24:36.747Z,99818.30
2022-11-17T20:27:05.507Z,99824.02
2022-11-17T20:29:34.256Z,99824.79
2022-11-17T20:32:03.050Z,99831.77
2022-11-17T20:34:31.612Z,99826.70
2022-11-17T20:37:00.360Z,99836.56
2022-11-17T20:39:28.953Z,99838.14
2022-11-17T20:41:57.592Z,99837.60
2022-11-17T20:44:26.341Z,99840.28
2022-11-17T20:46:56.087Z,99836.83
2022-11-17T20:49:25.431Z,99836.47
2022-11-17T20:51:54.148Z,99831.31
2022-11-17T20:54:22.903Z,99828.30
2022-11-17T20:56:51.636Z,99831.70
2022-11-17T20:59:22.097Z,99829.60
2022-11-17T21:01:51.176Z,99829.92
2022-11-17T21:04:20.127Z,99825.69
2022-11-17T21:06:48.868Z,99825.08
2022-11-17T21:09:18.018Z,99828.38
2022-11-17T21:11:59.190Z,99828.13
2022-11-17T21:14:28.117Z,99823.48
2022-11-17T21:16:58.083Z,99817.65
2022-11-17T21:19:28.543Z,99819.70
2022-11-17T21:21:57.464Z,99831.18
2022-11-17T21:24:27.899Z,99820.61
2022-11-17T21:26:57.068Z,99827.52
2022-11-17T21:29:26.055Z,99834.20
2022-11-17T21:31:54.810Z,99843.20
2022-11-17T21:34:23.602Z,99849.84
2022-11-17T21:36:53.601Z,99851.41
2022-11-17T21:39:25.177Z,99850.22
2022-11-17T21:41:53.989Z,99851.05
2022-11-17T21:44:22.809Z,99851.46
2022-11-17T21:46:52.704Z,99852.52
2022-11-17T21:49:21.469Z,99861.85
2022-11-17T21:51:50.422Z,99868.19
2022-11-17T21:54:19.367Z,99871.55
2022-11-17T21:56:48.289Z,99875.64
2022-11-17T21:59:17.542Z,99881.84
2022-11-17T22:02:03.827Z,99887.83
2022-11-17T22:04:32.529Z,99892.73
2022-11-17T22:07:01.152Z,99891.87
2022-11-17T22:09:30.061Z,99878.09
2022-11-17T22:11:58.921Z,99872.52
2022-11-17T22:14:27.846Z,99874.40
2022-11-17T22:16:56.647Z,99873.14
2022-11-17T22:19:29.529Z,99877.21
2022-11-17T22:21:58.775Z,99876.48
2022-11-17T22:24:27.586Z,99877.14
2022-11-17T22:26:56.383Z,99875.02
2022-11-17T22:29:25.141Z,99877.27
2022-11-17T22:31:53.872Z,99876.41
2022-11-17T22:34:23.058Z,99878.52
2022-11-17T22:36:51.661Z,99879.44
2022-11-17T22:39:20.483Z,99884.55
2022-11-17T22:41:49.222Z,99884.67
2022-11-17T22:44:17.904Z,99875.34
2022-11-17T22:46:46.526Z,99867.05
2022-11-17T22:49:15.476Z,99863.54
2022-11-17T22:52:03.144Z,99863.57
2022-11-17T22:54:32.401Z,99862.85
2022-11-17T22:57:02.524Z,99860.88
2022-11-17T22:59:33.541Z,99852.89
2022-11-17T23:02:02.312Z,99846.89
2022-11-17T23:04:31.261Z,99851.00
2022-11-17T23:07:00.066Z,99858.58
2022-11-17T23:09:29.986Z,99861.73
2022-11-17T23:11:58.658Z,99862.58
2022-11-17T23:14:27.484Z,99871.52
2022-11-17T23:16:56.179Z,99878.20
2022-11-17T23:19:27.367Z,99881.73
2022-11-17T23:21:56.051Z,99879.27
2022-11-17T23:24:24.620Z,99883.70
2022-11-17T23:26:53.244Z,99884.75
2022-11-17T23:29:21.848Z,99886.63
2022-11-17T23:31:50.529Z,99888.02
2022-11-17T23:34:19.299Z,99893.54
2022-11-17T23:36:49.485Z,99900.38
2022-11-17T23:39:18.503Z,99895.26
